Time;durP1;ratioP1;P1;durP2;ratioP2;P2;SDS_P1;SDS_P2;PMS_P1;PMS_P2;Temp;Humidity;BMP_temperature;BMP_pressure;BME280_temperature;BME280_humidity;BME280_pressure;Samples;Min_cycle;Max_cycle;Signal;HPM_P1;HPM_P2
2022/09/24 00:01:23;;;;;;;37.13;23.35;;;;;;;11.19;100.00;101163.31;5083050;28;20036;-64
2022/09/24 00:03:52;;;;;;;36.33;23.38;;;;;;;11.18;100.00;101158.00;5081972;28;20024;-63
2022/09/24 00:06:18;;;;;;;36.95;23.20;;;;;;;11.17;100.00;101170.38;5083157;28;20031;-65
2022/09/24 00:08:44;;;;;;;36.47;23.33;;;;;;;11.19;100.00;101165.09;5080031;28;20127;-64
2022/09/24 00:11:11;;;;;;;36.63;23.33;;;;;;;11.19;100.00;101163.31;5084747;28;20047;-64
2022/09/24 00:13:38;;;;;;;36.83;24.35;;;;;;;11.20;100.00;101162.44;5080644;28;20021;-64
2022/09/24 00:16:06;;;;;;;37.17;23.98;;;;;;;11.19;100.00;101157.16;5082647;28;20028;-65
2022/09/24 00:18:32;;;;;;;36.22;23.05;;;;;;;11.19;100.00;101152.72;5081351;28;20070;-65
2022/09/24 00:20:58;;;;;;;35.63;23.70;;;;;;;11.20;100.00;101153.59;5084585;28;20035;-65
2022/09/24 00:23:25;;;;;;;35.92;23.00;;;;;;;11.17;100.00;101162.44;5086233;28;20134;-64
2022/09/24 00:28:34;;;;;;;35.75;23.30;;;;;;;11.20;100.00;101145.66;5084818;28;20547;-64
2022/09/24 00:31:05;;;;;;;34.08;22.08;;;;;;;11.16;100.00;101143.00;5087048;28;20277;-65
2022/09/24 00:33:33;;;;;;;35.58;22.92;;;;;;;11.15;100.00;101132.41;5085436;28;20077;-65
2022/09/24 00:36:01;;;;;;;35.08;22.40;;;;;;;11.15;100.00;101135.97;5086738;28;20407;-65
2022/09/24 00:38:27;;;;;;;36.60;23.80;;;;;;;11.18;100.00;101134.19;5085617;28;20028;-65
2022/09/24 00:40:54;;;;;;;36.67;23.60;;;;;;;11.20;100.00;101129.78;5084538;28;20079;-67
2022/09/24 00:43:23;;;;;;;36.15;23.23;;;;;;;11.16;100.00;101129.78;5086626;28;20051;-65
2022/09/24 00:45:52;;;;;;;35.65;23.58;;;;;;;11.23;100.00;101127.19;5085312;28;20055;-65
2022/09/24 00:48:18;;;;;;;36.65;23.42;;;;;;;11.20;100.00;101132.44;5086430;28;20107;-65
2022/09/24 00:50:43;;;;;;;36.35;23.33;;;;;;;11.19;100.00;101120.97;5082612;28;20032;-65
2022/09/24 00:53:14;;;;;;;34.63;22.58;;;;;;;11.20;100.00;101116.56;5087616;28;20136;-66
2022/09/24 00:55:44;;;;;;;34.88;22.67;;;;;;;11.22;100.00;101125.41;5082445;28;20467;-65
2022/09/24 00:58:11;;;;;;;33.75;21.52;;;;;;;11.20;100.00;101121.84;5083906;28;20037;-65
2022/09/24 01:00:38;;;;;;;32.70;20.73;;;;;;;11.19;100.00;101114.81;5084235;28;20028;-65
2022/09/24 01:03:08;;;;;;;31.05;19.55;;;;;;;11.21;100.00;101115.69;5085342;28;20436;-65
2022/09/24 01:05:35;;;;;;;32.45;20.60;;;;;;;11.21;100.00;101119.22;5084148;28;20062;-65
2022/09/24 01:08:00;;;;;;;31.40;20.25;;;;;;;11.22;100.00;101105.13;5085469;28;20051;-65
2022/09/24 01:10:48;;;;;;;32.33;20.02;;;;;;;11.21;100.00;101103.34;5084929;28;20491;-65
2022/09/24 01:13:39;;;;;;;31.17;19.92;;;;;;;11.21;100.00;101108.63;5084106;28;20108;-65
2022/09/24 01:16:16;;;;;;;31.45;19.60;;;;;;;11.21;100.00;101099.81;5083927;28;20028;-65
2022/09/24 01:19:08;;;;;;;30.85;19.50;;;;;;;11.23;100.00;101098.09;5083740;28;20060;-64
2022/09/24 01:22:01;;;;;;;30.50;19.15;;;;;;;11.25;100.00;101093.69;5083842;28;20040;-64
2022/09/24 01:24:34;;;;;;;31.20;20.10;;;;;;;11.28;100.00;101093.69;5085658;28;20100;-65
2022/09/24 01:27:23;;;;;;;30.92;19.85;;;;;;;11.24;100.00;101084.88;5084147;28;20020;-64
2022/09/24 01:29:57;;;;;;;30.42;19.20;;;;;;;11.25;100.00;101091.03;5021386;28;20048;-65
2022/09/24 01:32:42;;;;;;;30.58;18.90;;;;;;;11.22;100.00;101088.38;5021387;28;20049;-65
2022/09/24 01:35:15;;;;;;;30.75;19.75;;;;;;;11.24;100.00;101083.94;5024533;28;20149;-66
2022/09/24 01:37:46;;;;;;;30.55;19.50;;;;;;;11.24;100.00;101073.38;5024600;28;20077;-66
2022/09/24 01:40:13;;;;;;;31.88;19.55;;;;;;;11.22;100.00;101077.78;5024484;28;20121;-65
2022/09/24 01:42:42;;;;;;;30.38;19.33;;;;;;;11.24;100.00;101073.38;5024565;28;20025;-64
2022/09/24 01:45:09;;;;;;;31.00;19.00;;;;;;;11.22;100.00;101073.38;5024715;28;20034;-61
2022/09/24 01:47:38;;;;;;;30.90;18.98;;;;;;;11.24;100.00;101068.97;5024118;28;20514;-62
2022/09/24 01:50:10;;;;;;;31.17;19.38;;;;;;;11.24;100.00;101070.72;5021365;28;20022;-61
2022/09/24 01:53:07;;;;;;;31.05;18.98;;;;;;;11.25;100.00;101067.22;5007432;28;20041;-61
2022/09/24 01:55:37;;;;;;;31.10;19.15;;;;;;;11.25;100.00;101067.22;5001506;28;20034;-61
2022/09/24 01:58:09;;;;;;;30.35;18.98;;;;;;;11.26;100.00;101071.63;5003945;28;20030;-61
2022/09/24 02:00:39;;;;;;;31.15;20.05;;;;;;;11.27;100.00;101061.06;5001241;28;20125;-61
2022/09/24 02:03:10;;;;;;;30.23;18.88;;;;;;;11.28;100.00;101067.22;5004239;28;20096;-62
2022/09/24 02:05:43;;;;;;;31.25;19.80;;;;;;;11.28;100.00;101059.28;5001613;28;20125;-62
2022/09/24 02:08:23;;;;;;;30.13;19.10;;;;;;;11.26;100.00;101061.91;5072021;28;20040;-62
2022/09/24 02:11:05;;;;;;;30.08;19.17;;;;;;;11.29;100.00;101066.34;5069562;28;20021;-62
2022/09/24 02:13:41;;;;;;;30.92;19.80;;;;;;;11.25;100.00;101062.78;5071745;28;20139;-62
2022/09/24 02:16:13;;;;;;;30.88;19.88;;;;;;;11.25;100.00;101064.56;5067681;28;20065;-62
2022/09/24 02:18:44;;;;;;;31.75;20.08;;;;;;;11.25;100.00;101060.16;5068039;28;20071;-62
2022/09/24 02:21:13;;;;;;;31.45;19.90;;;;;;;11.25;100.00;101056.63;5068012;28;20024;-61
2022/09/24 02:23:44;;;;;;;31.52;20.15;;;;;;;11.26;100.00;101059.28;5067854;28;20538;-62
2022/09/24 02:26:10;;;;;;;32.55;20.83;;;;;;;11.27;100.00;101049.56;5067838;28;20395;-62
2022/09/24 02:28:35;;;;;;;32.67;21.10;;;;;;;11.25;100.00;101049.56;5071743;28;20029;-62
2022/09/24 02:31:11;;;;;;;32.63;20.92;;;;;;;11.27;100.00;101055.75;5071517;28;20028;-62
2022/09/24 02:36:25;;;;;;;32.70;21.65;;;;;;;11.27;100.00;101049.56;5083616;28;20097;-61
2022/09/24 02:38:51;;;;;;;33.38;22.13;;;;;;;11.25;100.00;101046.03;5082790;28;20123;-61
2022/09/24 02:41:18;;;;;;;32.60;21.60;;;;;;;11.23;100.00;101038.09;5082610;28;20559;-61
2022/09/24 02:43:44;;;;;;;32.95;21.88;;;;;;;11.20;100.00;101038.09;5084841;28;20052;-62
2022/09/24 02:46:09;;;;;;;33.72;22.55;;;;;;;11.20;100.00;101040.72;5082219;28;20067;-61
2022/09/24 02:48:35;;;;;;;35.10;23.55;;;;;;;11.19;100.00;101043.38;5085147;28;20455;-61
2022/09/24 02:51:03;;;;;;;35.50;23.50;;;;;;;11.19;100.00;101046.03;5082447;28;20482;-61
2022/09/24 02:53:29;;;;;;;37.88;24.70;;;;;;;11.18;100.00;101039.81;5084235;28;20036;-61
2022/09/24 02:55:59;;;;;;;37.20;25.30;;;;;;;11.16;100.00;101034.53;5083369;28;20563;-64
2022/09/24 02:58:24;;;;;;;37.40;25.90;;;;;;;11.16;100.00;101036.28;5083254;28;20028;-64
2022/09/24 03:00:49;;;;;;;39.08;27.40;;;;;;;11.18;100.00;101031.88;5083926;28;20040;-62
2022/09/24 03:03:15;;;;;;;39.25;27.00;;;;;;;11.18;100.00;101039.81;5082065;28;20065;-62
2022/09/24 03:05:40;;;;;;;40.30;27.60;;;;;;;11.19;100.00;101035.44;5083591;28;20458;-62
2022/09/24 03:08:06;;;;;;;41.70;29.77;;;;;;;11.20;100.00;101037.19;5081706;28;20028;-65
2022/09/24 03:10:31;;;;;;;44.88;31.05;;;;;;;11.19;100.00;101027.50;5084224;28;20024;-66
2022/09/24 03:12:57;;;;;;;45.05;31.70;;;;;;;11.21;100.00;101028.38;5082538;28;20012;-66
2022/09/24 03:15:22;;;;;;;46.33;32.97;;;;;;;11.22;100.00;101030.16;5082643;28;20036;-65
2022/09/24 03:17:47;;;;;;;50.45;34.40;;;;;;;11.22;100.00;101030.16;5083873;28;20020;-66
2022/09/24 03:20:13;;;;;;;49.67;34.42;;;;;;;11.22;100.00;101024.84;5081185;28;20060;-66
2022/09/24 03:22:38;;;;;;;51.92;36.80;;;;;;;11.19;100.00;101024.84;5083211;28;20063;-65
2022/09/24 03:25:04;;;;;;;54.90;37.65;;;;;;;11.20;100.00;101019.56;5081536;28;20482;-66
2022/09/24 03:27:29;;;;;;;55.38;37.83;;;;;;;11.20;100.00;101023.94;5083511;28;20032;-66
2022/09/24 03:32:39;;;;;;;58.78;39.53;;;;;;;11.22;100.00;101014.28;5072040;28;20064;-66
2022/09/24 03:35:05;;;;;;;64.28;41.95;;;;;;;11.25;100.00;101019.56;5081166;28;20479;-66
2022/09/24 03:37:32;;;;;;;61.28;41.92;;;;;;;11.23;100.00;101016.06;5083569;28;20086;-66
2022/09/24 03:39:57;;;;;;;64.40;44.17;;;;;;;11.24;100.00;101017.81;5082533;28;20107;-66
2022/09/24 03:42:22;;;;;;;61.22;41.47;;;;;;;11.22;100.00;101014.28;5082314;28;20024;-66
2022/09/24 03:44:48;;;;;;;63.65;43.13;;;;;;;11.22;100.00;101012.50;5083598;28;20467;-67
2022/09/24 03:47:13;;;;;;;66.03;43.83;;;;;;;11.21;100.00;101012.50;5079657;28;20036;-65
2022/09/24 03:49:38;;;;;;;62.42;42.92;;;;;;;11.21;100.00;101010.72;5084342;28;20115;-66
2022/09/24 03:52:04;;;;;;;67.80;42.20;;;;;;;11.21;100.00;101001.91;5081577;28;20027;-66
2022/09/24 03:54:30;;;;;;;64.28;42.15;;;;;;;11.19;100.00;100999.25;5083082;28;20028;-66
2022/09/24 03:56:55;;;;;;;66.10;42.42;;;;;;;11.18;100.00;100997.47;5081874;28;20051;-66
2022/09/24 03:59:20;;;;;;;65.65;43.45;;;;;;;11.18;100.00;101004.56;5080722;28;20032;-65
2022/09/24 04:01:46;;;;;;;65.07;42.45;;;;;;;11.18;100.00;101007.19;5083692;28;20028;-66
2022/09/24 04:04:14;;;;;;;65.30;43.05;;;;;;;11.16;100.00;101008.06;5079513;28;20017;-62
2022/09/24 04:06:39;;;;;;;64.60;42.38;;;;;;;11.16;100.00;100992.19;5081180;28;20020;-62
2022/09/24 04:09:05;;;;;;;63.50;41.58;;;;;;;11.16;100.00;100994.84;5083620;28;20026;-62
2022/09/24 04:11:31;;;;;;;63.30;41.35;;;;;;;11.15;100.00;100989.53;5081973;28;20032;-62
2022/09/24 04:13:57;;;;;;;66.15;41.00;;;;;;;11.16;100.00;100992.19;5082767;28;20029;-63
2022/09/24 04:16:22;;;;;;;65.25;41.42;;;;;;;11.16;100.00;100994.84;5082763;28;20034;-62
2022/09/24 04:18:48;;;;;;;65.10;42.10;;;;;;;11.16;100.00;100983.38;5081296;28;20017;-62
2022/09/24 04:21:13;;;;;;;66.40;41.00;;;;;;;11.17;100.00;100987.81;5084052;28;20451;-63
2022/09/24 04:23:39;;;;;;;64.72;41.47;;;;;;;11.14;100.00;100978.09;5080513;28;20407;-62
2022/09/24 04:26:04;;;;;;;64.35;41.03;;;;;;;11.14;100.00;100975.44;5083541;28;20020;-63
2022/09/24 04:28:30;;;;;;;65.85;42.00;;;;;;;11.16;100.00;100981.59;5081602;28;20028;-62
2022/09/24 04:30:55;;;;;;;67.13;40.70;;;;;;;11.14;100.00;100980.72;5082269;28;20031;-64
2022/09/24 04:33:21;;;;;;;65.25;40.25;;;;;;;11.14;100.00;100987.78;5083244;28;20020;-62
2022/09/24 04:35:46;;;;;;;68.43;40.13;;;;;;;11.12;100.00;100982.47;5080594;28;20040;-62
2022/09/24 04:38:12;;;;;;;63.13;40.28;;;;;;;11.13;100.00;100978.94;5083796;28;20070;-63
2022/09/24 04:40:38;;;;;;;67.55;41.25;;;;;;;11.13;100.00;100978.94;5080456;28;20039;-62
2022/09/24 04:43:04;;;;;;;63.65;40.78;;;;;;;11.12;100.00;100982.47;5083428;28;20024;-62
2022/09/24 04:45:31;;;;;;;61.83;40.13;;;;;;;11.13;100.00;100988.66;5081551;28;20344;-63
2022/09/24 04:47:56;;;;;;;63.65;39.15;;;;;;;11.14;100.00;100979.84;5082435;28;20498;-63
2022/09/24 04:50:27;;;;;;;65.05;40.50;;;;;;;11.14;100.00;100986.03;5081277;28;20059;-65
2022/09/24 04:52:54;;;;;;;62.03;39.22;;;;;;;11.13;100.00;100986.88;5082666;28;20028;-64
2022/09/24 04:55:20;;;;;;;63.22;39.58;;;;;;;11.15;100.00;100978.94;5081917;28;20036;-63
2022/09/24 04:57:45;;;;;;;64.25;40.63;;;;;;;11.14;100.00;100986.03;5081781;28;20020;-63
2022/09/24 05:00:14;;;;;;;62.80;39.65;;;;;;;11.15;100.00;100982.50;5082958;28;20036;-65
2022/09/24 05:02:40;;;;;;;65.70;41.40;;;;;;;11.15;100.00;100974.56;5080774;28;20029;-63
2022/09/24 05:05:06;;;;;;;67.60;40.63;;;;;;;11.17;100.00;100982.50;5083417;28;20016;-63
2022/09/24 05:07:31;;;;;;;67.47;40.85;;;;;;;11.18;100.00;100978.97;5081013;28;20024;-63
2022/09/24 05:09:56;;;;;;;64.25;40.08;;;;;;;11.16;100.00;100978.97;5086677;28;20031;-64
2022/09/24 05:12:22;;;;;;;58.55;36.70;;;;;;;11.15;100.00;100979.84;5084663;28;20065;-63
2022/09/24 05:14:47;;;;;;;58.75;37.92;;;;;;;11.15;100.00;100981.59;5085191;28;20020;-64
2022/09/24 05:17:13;;;;;;;61.45;38.22;;;;;;;11.16;100.00;100984.25;5086200;28;20028;-65
2022/09/24 05:19:38;;;;;;;59.20;36.65;;;;;;;11.14;100.00;100991.31;5083793;28;20021;-64
2022/09/24 05:22:03;;;;;;;58.58;35.85;;;;;;;11.14;100.00;100988.66;5087107;28;20028;-66
2022/09/24 05:24:29;;;;;;;52.97;33.80;;;;;;;11.12;100.00;100981.59;5083840;28;20071;-63
2022/09/24 05:27:09;;;;;;;55.00;34.83;;;;;;;11.12;100.00;100987.75;5086241;28;20028;-62
2022/09/24 05:29:42;;;;;;;55.13;34.47;;;;;;;11.12;100.00;100990.41;5083721;28;20108;-63
2022/09/24 05:32:11;;;;;;;53.00;33.42;;;;;;;11.14;100.00;100993.09;5083765;28;20050;-65
2022/09/24 05:34:37;;;;;;;54.13;33.47;;;;;;;11.12;100.00;100989.53;5086215;28;20043;-66
2022/09/24 05:37:03;;;;;;;53.40;33.58;;;;;;;11.11;100.00;100983.38;5083276;28;20033;-66
2022/09/24 05:39:29;;;;;;;51.42;32.70;;;;;;;11.09;100.00;100990.38;5086309;28;20021;-66
2022/09/24 05:41:55;;;;;;;51.05;32.35;;;;;;;11.10;100.00;100992.16;5083946;28;20024;-66
2022/09/24 05:44:21;;;;;;;51.40;31.98;;;;;;;11.10;100.00;100993.94;5084989;28;20020;-65
2022/09/24 05:46:50;;;;;;;50.85;31.98;;;;;;;11.10;100.00;100992.16;5085246;28;20497;-66
2022/09/24 05:49:16;;;;;;;51.20;32.05;;;;;;;11.10;100.00;100999.22;5084763;28;20025;-66
2022/09/24 05:51:42;;;;;;;52.60;32.63;;;;;;;11.09;100.00;100998.31;5085401;28;20027;-65
2022/09/24 05:54:08;;;;;;;50.80;31.50;;;;;;;11.09;100.00;101003.63;5083315;28;20512;-66
2022/09/24 05:56:33;;;;;;;49.65;31.77;;;;;;;11.09;100.00;100998.31;5086357;28;20116;-65
2022/09/24 05:59:01;;;;;;;52.97;32.28;;;;;;;11.08;100.00;101001.88;5082951;28;20024;-66
2022/09/24 06:01:28;;;;;;;51.45;31.83;;;;;;;11.11;100.00;101000.97;5086089;28;20031;-65
2022/09/24 06:03:56;;;;;;;51.70;32.75;;;;;;;11.11;100.00;101000.97;5084120;28;20077;-66
2022/09/24 06:06:23;;;;;;;51.63;31.60;;;;;;;11.10;100.00;101008.03;5084810;28;20475;-67
2022/09/24 06:08:49;;;;;;;52.22;32.40;;;;;;;11.09;100.00;101003.63;5084134;28;20065;-66
2022/09/24 06:11:14;;;;;;;55.53;31.98;;;;;;;11.11;100.00;101009.81;5083849;28;20406;-63
2022/09/24 06:13:39;;;;;;;54.00;32.65;;;;;;;11.13;100.00;101015.13;5085461;28;20032;-63
2022/09/24 06:16:07;;;;;;;52.95;31.63;;;;;;;11.12;100.00;101013.34;5082757;28;20029;-63
2022/09/24 06:18:33;;;;;;;52.13;31.83;;;;;;;11.12;100.00;101019.50;5082131;28;20075;-63
2022/09/24 06:21:03;;;;;;;51.72;32.13;;;;;;;11.12;100.00;101023.91;5085652;28;20115;-63
2022/09/24 06:23:30;;;;;;;51.30;31.73;;;;;;;11.12;100.00;101014.22;5082834;28;20070;-63
2022/09/24 06:25:56;;;;;;;54.72;32.45;;;;;;;11.12;100.00;101014.22;5085053;28;20027;-63
2022/09/24 06:28:23;;;;;;;54.00;33.17;;;;;;;11.15;100.00;101008.06;5083335;28;20020;-63
2022/09/24 06:30:48;;;;;;;51.67;32.25;;;;;;;11.16;100.00;101017.78;5083655;28;20608;-63
2022/09/24 06:33:13;;;;;;;50.95;31.38;;;;;;;11.17;100.00;101022.19;5084914;28;20103;-63
2022/09/24 06:35:41;;;;;;;53.70;32.92;;;;;;;11.16;100.00;101025.72;5082191;28;20074;-64
2022/09/24 06:38:09;;;;;;;52.83;32.80;;;;;;;11.15;100.00;101023.94;5085534;28;20032;-64
2022/09/24 06:40:34;;;;;;;53.65;32.38;;;;;;;11.15;100.00;101023.94;5081947;28;20158;-63
2022/09/24 06:43:00;;;;;;;52.42;31.55;;;;;;;11.15;100.00;101031.88;5085413;28;20477;-64
2022/09/24 06:45:26;;;;;;;51.20;31.08;;;;;;;11.14;100.00;101023.06;5082702;28;20024;-63
2022/09/24 06:47:56;;;;;;;53.25;31.17;;;;;;;11.16;100.00;101023.94;5084047;28;20031;-64
2022/09/24 06:50:23;;;;;;;53.55;32.20;;;;;;;11.18;100.00;101028.38;5082869;28;20055;-63
2022/09/24 06:52:49;;;;;;;52.58;32.63;;;;;;;11.16;100.00;101021.28;5083280;28;20043;-64
2022/09/24 06:55:15;;;;;;;54.67;32.65;;;;;;;11.16;100.00;101023.06;5084233;28;20016;-63
2022/09/24 06:57:40;;;;;;;56.50;33.40;;;;;;;11.19;100.00;101027.50;5082113;28;20031;-64
2022/09/24 07:00:07;;;;;;;52.55;32.65;;;;;;;11.19;100.00;101031.00;5085073;28;20386;-64
2022/09/24 07:02:32;;;;;;;54.00;31.95;;;;;;;11.18;100.00;101023.94;5081850;28;20063;-64
2022/09/24 07:04:57;;;;;;;54.72;32.97;;;;;;;11.21;100.00;101033.66;5084592;28;20052;-64
2022/09/24 07:07:29;;;;;;;53.78;33.38;;;;;;;11.21;100.00;101031.03;5082748;28;20020;-62
2022/09/24 07:09:55;;;;;;;55.60;33.60;;;;;;;11.23;100.00;101034.56;5083898;28;20032;-62
2022/09/24 07:12:21;;;;;;;54.88;33.67;;;;;;;11.22;100.00;101033.66;5082707;28;20032;-66
2022/09/24 07:14:47;;;;;;;56.58;33.80;;;;;;;11.22;100.00;101030.16;5082974;28;20356;-62
2022/09/24 07:17:12;;;;;;;57.58;33.22;;;;;;;11.24;100.00;101034.59;5083783;28;20554;-62
2022/09/24 07:19:37;;;;;;;55.30;34.10;;;;;;;11.27;100.00;101038.97;5081126;28;20081;-62
2022/09/24 07:22:03;;;;;;;60.97;35.05;;;;;;;11.28;100.00;101038.13;5083623;28;20158;-62
2022/09/24 07:24:29;;;;;;;63.03;34.60;;;;;;;11.31;100.00;101038.13;5081516;28;20024;-62
2022/09/24 07:26:54;;;;;;;58.50;34.88;;;;;;;11.31;100.00;101038.13;5083605;28;20363;-64
2022/09/24 07:29:19;;;;;;;60.70;34.83;;;;;;;11.31;100.00;101035.47;5082695;28;20024;-63
2022/09/24 07:31:45;;;;;;;62.58;35.97;;;;;;;11.36;100.00;101040.78;5081333;28;20586;-63
2022/09/24 07:34:10;;;;;;;61.65;35.92;;;;;;;11.36;100.00;101043.44;5083627;28;20055;-62
2022/09/24 07:36:35;;;;;;;58.33;35.38;;;;;;;11.33;100.00;101047.84;5081184;28;20146;-62
2022/09/24 07:39:01;;;;;;;62.92;36.63;;;;;;;11.33;100.00;101049.63;5084278;28;20104;-61
2022/09/24 07:41:26;;;;;;;58.33;34.97;;;;;;;11.30;100.00;101050.47;5081582;28;20086;-62
2022/09/24 07:43:54;;;;;;;59.15;35.25;;;;;;;11.30;100.00;101061.06;5083062;28;20395;-62
2022/09/24 07:46:20;;;;;;;63.08;36.75;;;;;;;11.34;100.00;101059.31;5082631;28;20024;-62
2022/09/24 07:48:47;;;;;;;63.78;36.80;;;;;;;11.40;100.00;101058.44;5081981;28;20369;-62
2022/09/24 07:51:12;;;;;;;69.85;39.00;;;;;;;11.41;100.00;101062.88;5083850;28;20032;-62
2022/09/24 07:53:38;;;;;;;71.85;39.65;;;;;;;11.42;100.00;101060.22;5081043;28;20028;-62
2022/09/24 07:56:03;;;;;;;69.38;38.78;;;;;;;11.48;100.00;101054.97;5084333;28;20016;-62
2022/09/24 07:58:29;;;;;;;67.43;39.13;;;;;;;11.46;100.00;101058.47;5081312;28;20054;-62
2022/09/24 08:00:57;;;;;;;69.55;39.80;;;;;;;11.48;100.00;101067.31;5082825;28;20467;-62
2022/09/24 08:03:23;;;;;;;68.30;38.92;;;;;;;11.51;100.00;101062.91;5081984;28;20031;-62
2022/09/24 08:05:48;;;;;;;71.03;39.08;;;;;;;11.51;100.00;101068.19;5082434;28;20024;-62
2022/09/24 08:08:13;;;;;;;65.82;38.67;;;;;;;11.49;100.00;101069.97;5083268;28;20024;-62
2022/09/24 08:10:40;;;;;;;64.78;38.63;;;;;;;11.46;100.00;101069.97;5081332;28;20028;-62
2022/09/24 08:13:05;;;;;;;67.03;38.10;;;;;;;11.45;100.00;101068.19;5083920;28;20497;-62
2022/09/24 08:15:31;;;;;;;70.03;40.08;;;;;;;11.51;100.00;101076.16;5080625;28;20028;-62
2022/09/24 08:18:03;;;;;;;66.30;39.75;;;;;;;11.50;100.00;101077.03;5083244;28;20059;-62
2022/09/24 08:20:29;;;;;;;;;;;;;;;11.51;100.00;101077.91;5081715;28;20036;-62
2022/09/24 08:23:00;;;;;;;70.07;40.47;;;;;;;11.50;100.00;101077.03;5082886;28;19919;-61
2022/09/24 08:25:25;;;;;;;69.43;40.75;;;;;;;11.56;100.00;101086.75;5081471;28;20056;-62
2022/09/24 08:27:51;;;;;;;68.38;40.53;;;;;;;11.54;100.00;101090.28;5082446;28;20063;-65
2022/09/24 08:30:16;;;;;;;65.10;39.53;;;;;;;11.48;100.00;101085.84;5082426;28;20111;-65
2022/09/24 08:32:46;;;;;;;78.93;42.35;;;;;;;11.58;100.00;101086.78;5081084;28;20024;-65
2022/09/24 08:35:11;;;;;;;70.05;41.28;;;;;;;11.60;100.00;101091.19;5082069;28;20478;-65
2022/09/24 08:37:37;;;;;;;69.82;40.85;;;;;;;11.58;100.00;101089.44;5080291;28;20168;-65
2022/09/24 08:40:03;;;;;;;64.13;39.38;;;;;;;11.55;100.00;101092.03;5083781;28;20020;-65
2022/09/24 08:42:33;;;;;;;65.38;39.80;;;;;;;11.51;100.00;101092.03;5083239;28;20028;-65
2022/09/24 08:47:49;;;;;;;63.85;38.53;;;;;;;11.51;100.00;101086.72;5085186;28;20467;-65
2022/09/24 08:50:22;;;;;;;63.08;39.90;;;;;;;11.55;100.00;101098.25;5086641;28;20047;-66
2022/09/24 08:52:58;;;;;;;57.78;37.50;;;;;;;11.52;100.00;101092.94;5085415;28;20470;-66
2022/09/24 08:55:37;;;;;;;57.58;36.08;;;;;;;11.50;100.00;101090.28;5085293;28;20107;-65
2022/09/24 08:58:23;;;;;;;58.63;37.17;;;;;;;11.54;100.00;101100.88;5087263;28;20028;-66
2022/09/24 09:00:57;;;;;;;60.40;37.90;;;;;;;11.52;100.00;101107.03;5085720;28;20115;-66
2022/09/24 09:03:43;;;;;;;64.55;38.78;;;;;;;11.60;100.00;101106.19;5085417;28;20027;-66
2022/09/24 09:06:37;;;;;;;64.93;40.05;;;;;;;11.63;100.00;101103.56;5083690;28;20063;-66
2022/09/24 09:09:11;;;;;;;67.07;41.15;;;;;;;11.68;100.00;101109.78;5083906;28;20032;-65
2022/09/24 09:11:38;;;;;;;75.68;42.63;;;;;;;11.68;100.00;101110.66;5083621;28;20024;-65
2022/09/24 09:14:13;;;;;;;73.63;42.88;;;;;;;11.66;100.00;101114.16;5083428;28;20486;-65
2022/09/24 09:16:52;;;;;;;68.70;41.00;;;;;;;11.68;100.00;101110.66;5083784;28;20039;-64
2022/09/24 09:19:20;;;;;;;71.85;42.38;;;;;;;11.73;100.00;101104.50;5086179;28;20031;-63
2022/09/24 09:21:53;;;;;;;70.82;41.65;;;;;;;11.69;100.00;101115.06;5084693;28;20085;-63
2022/09/24 09:24:34;;;;;;;68.80;40.63;;;;;;;11.68;100.00;101110.66;5085326;28;20020;-64
2022/09/24 09:27:00;;;;;;;79.80;43.53;;;;;;;11.81;100.00;101111.59;5086500;28;20078;-63
2022/09/24 09:29:26;;;;;;;79.85;43.42;;;;;;;11.88;100.00;101123.06;5084572;28;20070;-63
2022/09/24 09:32:12;;;;;;;71.20;42.30;;;;;;;11.84;100.00;101116.00;5085177;28;20482;-64
2022/09/24 09:34:54;;;;;;;69.05;41.78;;;;;;;11.80;100.00;101117.75;5083043;28;20044;-64
2022/09/24 09:37:37;;;;;;;81.55;43.67;;;;;;;11.97;100.00;101120.50;5085149;28;20025;-63
2022/09/24 09:40:12;;;;;;;;;;;;;;;12.00;100.00;101116.97;5083617;28;20021;-64
2022/09/24 09:42:40;;;;;;;73.00;42.72;;;;;;;11.93;100.00;101112.50;5086823;28;19957;-63
2022/09/24 09:45:36;;;;;;;72.43;43.55;;;;;;;11.98;100.00;101113.41;5083302;28;20020;-64
2022/09/24 09:48:02;;;;;;;72.30;42.30;;;;;;;11.95;100.00;101113.41;5020792;28;20404;-64
2022/09/24 09:50:46;;;;;;;72.30;42.22;;;;;;;11.94;100.00;101116.94;5023575;28;20503;-64
2022/09/24 09:53:23;;;;;;;71.68;42.03;;;;;;;12.01;100.00;101114.34;5020517;28;20080;-64
2022/09/24 09:56:14;;;;;;;73.82;43.97;;;;;;;12.13;100.00;101110.81;5022970;28;20516;-63
2022/09/24 09:58:46;;;;;;;74.60;43.58;;;;;;;12.13;100.00;101117.88;5023960;28;20563;-64
2022/09/24 10:01:14;;;;;;;67.97;41.28;;;;;;;12.13;100.00;101121.41;5020913;28;20100;-63
2022/09/24 10:03:48;;;;;;;76.43;43.70;;;;;;;12.22;100.00;101115.25;5023868;28;20052;-63
2022/09/24 10:06:23;;;;;;;68.18;42.42;;;;;;;12.21;100.00;101117.00;5021252;28;20072;-63
2022/09/24 10:08:48;;;;;;;63.17;40.53;;;;;;;12.21;100.00;101119.66;5022753;28;20122;-63
2022/09/24 10:11:16;;;;;;;62.03;39.85;;;;;;;12.16;100.00;101121.44;5020999;28;20104;-64
2022/09/24 10:13:41;;;;;;;63.17;40.20;;;;;;;12.20;100.00;101124.94;5023405;28;20036;-65
2022/09/24 10:16:09;;;;;;;61.33;39.50;;;;;;;12.19;100.00;101118.78;5020649;28;20026;-64
2022/09/24 10:18:44;;;;;;;62.67;39.75;;;;;;;12.27;100.00;101125.88;5023814;28;20502;-64
2022/09/24 10:21:13;;;;;;;60.75;38.90;;;;;;;12.27;100.00;101120.56;5023573;28;20033;-65
2022/09/24 10:23:46;;;;;;;61.03;39.40;;;;;;;12.29;100.00;101117.03;5023484;28;20037;-64
2022/09/24 10:26:11;;;;;;;55.40;36.17;;;;;;;12.20;100.00;101109.06;5082914;28;20371;-65
2022/09/24 10:31:36;;;;;;;56.17;37.60;;;;;;;12.38;100.00;101108.22;5085956;28;20496;-65
2022/09/24 10:34:17;;;;;;;57.80;38.05;;;;;;;12.37;100.00;101103.78;5082275;28;20033;-65
2022/09/24 10:36:56;;;;;;;54.92;37.90;;;;;;;12.31;100.00;101109.09;5082493;28;20032;-65
2022/09/24 10:39:22;;;;;;;51.28;36.05;;;;;;;12.31;100.00;101117.91;5083604;28;20023;-65
2022/09/24 10:41:53;;;;;;;52.22;35.75;;;;;;;12.25;100.00;101109.97;5083437;28;20111;-64
2022/09/24 10:44:20;;;;;;;53.50;36.53;;;;;;;12.49;100.00;101116.16;5083994;28;20020;-65
2022/09/24 10:47:36;;;;;;;54.53;37.58;;;;;;;12.67;100.00;101120.63;5082606;28;20052;-64
2022/09/24 10:50:38;;;;;;;56.45;37.63;;;;;;;12.81;100.00;101126.78;5003605;28;20052;-65
2022/09/24 10:53:12;;;;;;;49.72;34.83;;;;;;;12.72;100.00;101121.47;4914849;29;20043;-65
2022/09/24 10:55:54;;;;;;;53.05;36.65;;;;;;;13.01;100.00;101125.88;4907411;29;20674;-65
2022/09/24 10:59:06;;;;;;;45.95;32.67;;;;;;;12.90;100.00;101139.16;4915352;29;20051;-65
2022/09/24 11:02:27;;;;;;;47.30;32.47;;;;;;;12.88;100.00;101132.97;4914919;29;20972;-65
2022/09/24 11:05:03;;;;;;;44.22;31.63;;;;;;;12.76;100.00;101136.50;4894491;29;20571;-65
2022/09/24 11:07:38;;;;;;;43.45;30.60;;;;;;;12.84;100.00;101137.41;4896094;29;20041;-65
2022/09/24 11:10:29;;;;;;;42.55;30.83;;;;;;;12.98;100.00;101131.19;4895825;29;20045;-64
2022/09/24 11:13:22;;;;;;;41.35;30.20;;;;;;;13.04;100.00;101144.47;4894707;29;20161;-65
2022/09/24 11:16:09;;;;;;;37.47;27.25;;;;;;;12.85;100.00;101141.81;4893901;29;20063;-65
2022/09/24 11:18:59;;;;;;;36.13;26.00;;;;;;;12.81;100.00;101137.38;4895982;29;20072;-65
2022/09/24 11:21:45;;;;;;;36.28;25.95;;;;;;;12.92;100.00;101140.06;4894324;29;20066;-65
2022/09/24 11:24:35;;;;;;;33.95;23.58;;;;;;;13.02;100.00;101144.47;4892575;29;20037;-65
2022/09/24 11:27:18;;;;;;;35.28;24.55;;;;;;;13.15;100.00;101140.03;4933529;29;20430;-65
2022/09/24 11:29:53;;;;;;;35.03;24.52;;;;;;;13.33;100.00;101143.53;4958979;28;20041;-65